Malmedy, Belgium
Current Conditions -  °F | °C
As of 10:25 PM on Thursday 23 Oct 2014 (Local Time) from EBLB Reporting Station
Overcast Overcast  
Wind Chill: 44°   Ceiling: 200
Heat Index: 46°   Visibility: 1.9mi
Dew Point: 45°   Wind: 5mph
Humidity: 93%   Direction: 210°SSW
Pressure: 30.24"   Gusts: NA
Location:  50.43°N, 6.03°E
Report Text: EBLB 232025Z AUTO 21004KT 3100 BKN002/// OVC004/// 08/07 Q1024 AMB
Loading
Personal Weather Stations






























Interactive Weather Map
Tropical Storm Tracking
New forecast layout! Learn more

10-Day Weather Forecast

Advertisements
Track Severe Weather on mobile